Sheldon, Missouri
Current Conditions -  °F | °C
As of 12:15 PM on Thursday 27 Nov 2014 (Local Time) from KPTS Reporting Station
Clear Clear  
Wind Chill: 34°   Ceiling: Unl
Heat Index: 38°   Visibility: 10mi
Dew Point: 28°   Wind: 5mph
Humidity: 67%   Direction: 250°WSW
Pressure: 30.51"   Gusts: NA
Location:  37.66°N, 94.29°W
Report Text: KPTS 271815Z AUTO 25004KT 10SM CLR 03/M02 A3051 RMK AO2 T00331023
Loading
Personal Weather Stations






























Interactive Weather Map New forecast layout! Learn more

10-Day Weather Forecast

Advertisements
Track Severe Weather on mobile